KAGS

Augusta Regional at Bush Field Airport

Augusta, Georgia, USA
METAR KAGS 181353Z 26008KT 10SM FEW015 28/23 A3010 RMK AO2 SLP189 T02780233
Observed Flight Rules
Aug-18 @ 13:53 UTC (60 minutes ago) Visual Flight Rules
Wind Visibility Clouds
260° at 8 knots 10 miles
  • Few at 1,500' AGL
Temperatures Readings
Current 28°C / 82°F
Dewpoint 23°C / 73°F
Humidity 74%
Altimeter 30.1" Hg
Pressure 1018.9 hPa
Elevation 44
METAR KAGS 181353Z 26008KT 10SM FEW015 28/23 A3010 RMK AO2 SLP189 T02780233
Observed Flight Rules
Aug-18 @ 13:53 UTC
(60 minutes ago)
VFR
Wind Visibility
260° at 8 knots 10 miles
Clouds
  • Few at 1,500' AGL
Temperature Dewpoint
28°C / 82°F 23°C / 73°F
Humidity Altimeter Pressure
74% 30.1" Hg 1018.9 hPa